sensor_id;sensor_type;location;lat;lon;timestamp;P1;durP1;ratioP1;P2;durP2;ratioP2
9370;SDS011;4725;48.384;8.984;2022-07-06T00:00:08;3.20;;;1.73;;
9370;SDS011;4725;48.384;8.984;2022-07-06T00:02:36;1.33;;;1.23;;
9370;SDS011;4725;48.384;8.984;2022-07-06T00:05:03;2.70;;;1.60;;
9370;SDS011;4725;48.384;8.984;2022-07-06T00:07:31;1.43;;;1.30;;
9370;SDS011;4725;48.384;8.984;2022-07-06T00:09:58;1.43;;;1.30;;
9370;SDS011;4725;48.384;8.984;2022-07-06T00:12:25;1.30;;;1.20;;
9370;SDS011;4725;48.384;8.984;2022-07-06T00:14:52;2.83;;;1.33;;
9370;SDS011;4725;48.384;8.984;2022-07-06T00:17:19;1.87;;;1.37;;
9370;SDS011;4725;48.384;8.984;2022-07-06T00:19:46;2.43;;;1.50;;
9370;SDS011;4725;48.384;8.984;2022-07-06T00:22:13;1.77;;;1.20;;
9370;SDS011;4725;48.384;8.984;2022-07-06T00:24:41;3.97;;;1.80;;
9370;SDS011;4725;48.384;8.984;2022-07-06T00:27:08;2.53;;;1.37;;
9370;SDS011;4725;48.384;8.984;2022-07-06T00:29:35;1.80;;;1.60;;
9370;SDS011;4725;48.384;8.984;2022-07-06T00:32:02;3.20;;;1.80;;
9370;SDS011;4725;48.384;8.984;2022-07-06T00:34:29;1.77;;;1.67;;
9370;SDS011;4725;48.384;8.984;2022-07-06T00:36:56;2.00;;;1.50;;
9370;SDS011;4725;48.384;8.984;2022-07-06T00:39:23;2.90;;;1.50;;
9370;SDS011;4725;48.384;8.984;2022-07-06T00:41:55;2.73;;;1.50;;
9370;SDS011;4725;48.384;8.984;2022-07-06T00:44:22;2.97;;;1.43;;
9370;SDS011;4725;48.384;8.984;2022-07-06T00:46:49;2.20;;;1.50;;
9370;SDS011;4725;48.384;8.984;2022-07-06T00:49:17;2.37;;;1.40;;
9370;SDS011;4725;48.384;8.984;2022-07-06T00:51:57;2.60;;;1.30;;
9370;SDS011;4725;48.384;8.984;2022-07-06T00:54:25;4.97;;;1.70;;
9370;SDS011;4725;48.384;8.984;2022-07-06T00:56:52;4.07;;;1.60;;
9370;SDS011;4725;48.384;8.984;2022-07-06T00:59:21;3.87;;;1.63;;
9370;SDS011;4725;48.384;8.984;2022-07-06T01:01:49;2.67;;;1.70;;
9370;SDS011;4725;48.384;8.984;2022-07-06T01:04:16;4.23;;;1.70;;
9370;SDS011;4725;48.384;8.984;2022-07-06T01:06:43;2.47;;;1.67;;
9370;SDS011;4725;48.384;8.984;2022-07-06T01:09:12;1.40;;;1.30;;
9370;SDS011;4725;48.384;8.984;2022-07-06T01:11:39;2.40;;;1.80;;
9370;SDS011;4725;48.384;8.984;2022-07-06T01:14:06;1.60;;;1.50;;
9370;SDS011;4725;48.384;8.984;2022-07-06T01:16:35;2.33;;;1.70;;
9370;SDS011;4725;48.384;8.984;2022-07-06T01:19:03;3.77;;;2.00;;
9370;SDS011;4725;48.384;8.984;2022-07-06T01:21:31;4.73;;;1.53;;
9370;SDS011;4725;48.384;8.984;2022-07-06T01:23:58;1.83;;;1.53;;
9370;SDS011;4725;48.384;8.984;2022-07-06T01:26:25;4.00;;;1.60;;
9370;SDS011;4725;48.384;8.984;2022-07-06T01:28:52;1.87;;;1.50;;
9370;SDS011;4725;48.384;8.984;2022-07-06T01:31:20;3.03;;;1.80;;
9370;SDS011;4725;48.384;8.984;2022-07-06T01:33:48;2.13;;;1.60;;
9370;SDS011;4725;48.384;8.984;2022-07-06T01:36:15;2.20;;;1.60;;
9370;SDS011;4725;48.384;8.984;2022-07-06T01:38:45;2.07;;;1.77;;
9370;SDS011;4725;48.384;8.984;2022-07-06T01:41:12;3.87;;;1.70;;
9370;SDS011;4725;48.384;8.984;2022-07-06T01:43:39;1.53;;;1.40;;
9370;SDS011;4725;48.384;8.984;2022-07-06T01:46:06;1.70;;;1.57;;
9370;SDS011;4725;48.384;8.984;2022-07-06T01:48:33;2.50;;;1.40;;
9370;SDS011;4725;48.384;8.984;2022-07-06T01:51:00;2.80;;;1.50;;
9370;SDS011;4725;48.384;8.984;2022-07-06T01:53:27;2.97;;;2.27;;
9370;SDS011;4725;48.384;8.984;2022-07-06T01:55:56;2.07;;;1.50;;
9370;SDS011;4725;48.384;8.984;2022-07-06T01:58:23;3.17;;;1.60;;
9370;SDS011;4725;48.384;8.984;2022-07-06T02:00:50;1.97;;;1.33;;
9370;SDS011;4725;48.384;8.984;2022-07-06T02:03:17;5.27;;;1.63;;
9370;SDS011;4725;48.384;8.984;2022-07-06T02:05:43;2.93;;;1.70;;
9370;SDS011;4725;48.384;8.984;2022-07-06T02:08:11;3.47;;;2.07;;
9370;SDS011;4725;48.384;8.984;2022-07-06T02:10:38;2.00;;;1.53;;
9370;SDS011;4725;48.384;8.984;2022-07-06T02:13:06;2.13;;;1.50;;
9370;SDS011;4725;48.384;8.984;2022-07-06T02:15:33;6.37;;;1.60;;
9370;SDS011;4725;48.384;8.984;2022-07-06T02:18:00;3.33;;;1.73;;
9370;SDS011;4725;48.384;8.984;2022-07-06T02:20:27;1.90;;;1.50;;
9370;SDS011;4725;48.384;8.984;2022-07-06T02:22:54;2.37;;;1.67;;
9370;SDS011;4725;48.384;8.984;2022-07-06T02:25:21;3.07;;;1.50;;
9370;SDS011;4725;48.384;8.984;2022-07-06T02:27:48;2.90;;;1.87;;
9370;SDS011;4725;48.384;8.984;2022-07-06T02:30:17;2.60;;;1.53;;
9370;SDS011;4725;48.384;8.984;2022-07-06T02:32:43;2.50;;;1.60;;
9370;SDS011;4725;48.384;8.984;2022-07-06T02:35:10;3.87;;;1.93;;
9370;SDS011;4725;48.384;8.984;2022-07-06T02:37:37;2.47;;;2.27;;
9370;SDS011;4725;48.384;8.984;2022-07-06T02:40:05;3.07;;;1.97;;
9370;SDS011;4725;48.384;8.984;2022-07-06T02:42:32;2.10;;;1.70;;
9370;SDS011;4725;48.384;8.984;2022-07-06T02:45:00;2.83;;;1.60;;
9370;SDS011;4725;48.384;8.984;2022-07-06T02:47:28;4.63;;;1.87;;
9370;SDS011;4725;48.384;8.984;2022-07-06T02:49:55;3.43;;;2.23;;
9370;SDS011;4725;48.384;8.984;2022-07-06T02:52:22;4.57;;;2.10;;
9370;SDS011;4725;48.384;8.984;2022-07-06T02:54:49;3.40;;;1.90;;
9370;SDS011;4725;48.384;8.984;2022-07-06T02:57:16;3.10;;;2.10;;
9370;SDS011;4725;48.384;8.984;2022-07-06T02:59:43;2.40;;;2.17;;
9370;SDS011;4725;48.384;8.984;2022-07-06T03:02:11;2.27;;;1.90;;
9370;SDS011;4725;48.384;8.984;2022-07-06T03:04:39;3.33;;;1.93;;
9370;SDS011;4725;48.384;8.984;2022-07-06T03:07:06;1.90;;;1.80;;
9370;SDS011;4725;48.384;8.984;2022-07-06T03:09:33;1.80;;;1.70;;
9370;SDS011;4725;48.384;8.984;2022-07-06T03:12:00;2.00;;;1.53;;
9370;SDS011;4725;48.384;8.984;2022-07-06T03:14:27;2.00;;;1.80;;
9370;SDS011;4725;48.384;8.984;2022-07-06T03:16:54;2.47;;;2.10;;
9370;SDS011;4725;48.384;8.984;2022-07-06T03:19:21;2.27;;;1.80;;
9370;SDS011;4725;48.384;8.984;2022-07-06T03:21:50;4.10;;;2.03;;
9370;SDS011;4725;48.384;8.984;2022-07-06T03:24:17;6.03;;;2.00;;
9370;SDS011;4725;48.384;8.984;2022-07-06T03:26:45;2.97;;;2.00;;
9370;SDS011;4725;48.384;8.984;2022-07-06T03:29:12;1.87;;;1.77;;
9370;SDS011;4725;48.384;8.984;2022-07-06T03:31:39;4.17;;;2.03;;
9370;SDS011;4725;48.384;8.984;2022-07-06T03:34:06;3.07;;;2.20;;
9370;SDS011;4725;48.384;8.984;2022-07-06T03:36:33;2.10;;;1.90;;
9370;SDS011;4725;48.384;8.984;2022-07-06T03:39:01;2.60;;;2.00;;
9370;SDS011;4725;48.384;8.984;2022-07-06T03:41:28;3.80;;;2.27;;
9370;SDS011;4725;48.384;8.984;2022-07-06T03:43:55;5.43;;;2.20;;
9370;SDS011;4725;48.384;8.984;2022-07-06T03:46:22;4.53;;;2.40;;
9370;SDS011;4725;48.384;8.984;2022-07-06T03:48:49;1.90;;;1.70;;
9370;SDS011;4725;48.384;8.984;2022-07-06T03:51:16;3.13;;;1.80;;
9370;SDS011;4725;48.384;8.984;2022-07-06T03:53:44;2.63;;;1.93;;
9370;SDS011;4725;48.384;8.984;2022-07-06T03:56:12;2.57;;;1.93;;
9370;SDS011;4725;48.384;8.984;2022-07-06T03:58:54;3.43;;;2.27;;
9370;SDS011;4725;48.384;8.984;2022-07-06T04:01:21;6.60;;;1.80;;
9370;SDS011;4725;48.384;8.984;2022-07-06T04:03:49;2.20;;;2.00;;
9370;SDS011;4725;48.384;8.984;2022-07-06T04:06:16;3.60;;;1.70;;
9370;SDS011;4725;48.384;8.984;2022-07-06T04:08:43;5.53;;;2.17;;
9370;SDS011;4725;48.384;8.984;2022-07-06T04:11:14;4.70;;;1.90;;
9370;SDS011;4725;48.384;8.984;2022-07-06T04:13:44;3.03;;;2.37;;
9370;SDS011;4725;48.384;8.984;2022-07-06T04:16:11;3.43;;;2.33;;
9370;SDS011;4725;48.384;8.984;2022-07-06T04:18:38;2.27;;;2.00;;
9370;SDS011;4725;48.384;8.984;2022-07-06T04:21:05;2.40;;;2.00;;
9370;SDS011;4725;48.384;8.984;2022-07-06T04:23:32;7.20;;;2.50;;
9370;SDS011;4725;48.384;8.984;2022-07-06T04:25:59;3.03;;;2.53;;
9370;SDS011;4725;48.384;8.984;2022-07-06T04:28:27;6.90;;;2.30;;
9370;SDS011;4725;48.384;8.984;2022-07-06T04:30:54;3.90;;;2.37;;
9370;SDS011;4725;48.384;8.984;2022-07-06T04:33:21;3.20;;;2.57;;
9370;SDS011;4725;48.384;8.984;2022-07-06T04:35:48;2.63;;;2.43;;
9370;SDS011;4725;48.384;8.984;2022-07-06T04:38:15;2.70;;;2.20;;
9370;SDS011;4725;48.384;8.984;2022-07-06T04:40:42;2.43;;;2.23;;
9370;SDS011;4725;48.384;8.984;2022-07-06T04:43:11;3.70;;;2.40;;
9370;SDS011;4725;48.384;8.984;2022-07-06T04:45:39;2.83;;;2.27;;
9370;SDS011;4725;48.384;8.984;2022-07-06T04:48:06;8.20;;;2.53;;
9370;SDS011;4725;48.384;8.984;2022-07-06T04:50:34;5.70;;;2.50;;
9370;SDS011;4725;48.384;8.984;2022-07-06T04:53:01;3.40;;;2.50;;
9370;SDS011;4725;48.384;8.984;2022-07-06T04:55:28;4.20;;;2.20;;
9370;SDS011;4725;48.384;8.984;2022-07-06T04:57:55;2.60;;;2.30;;
9370;SDS011;4725;48.384;8.984;2022-07-06T05:00:22;4.13;;;2.30;;
9370;SDS011;4725;48.384;8.984;2022-07-06T05:02:51;2.90;;;2.03;;
9370;SDS011;4725;48.384;8.984;2022-07-06T05:05:18;4.93;;;2.60;;
9370;SDS011;4725;48.384;8.984;2022-07-06T05:07:45;4.23;;;2.20;;
9370;SDS011;4725;48.384;8.984;2022-07-06T05:10:12;3.00;;;2.70;;
9370;SDS011;4725;48.384;8.984;2022-07-06T05:12:39;3.90;;;2.33;;
9370;SDS011;4725;48.384;8.984;2022-07-06T05:15:06;5.33;;;2.50;;
9370;SDS011;4725;48.384;8.984;2022-07-06T05:17:34;2.73;;;2.20;;
9370;SDS011;4725;48.384;8.984;2022-07-06T05:20:02;3.10;;;2.00;;
9370;SDS011;4725;48.384;8.984;2022-07-06T05:22:30;4.23;;;2.23;;
9370;SDS011;4725;48.384;8.984;2022-07-06T05:24:57;2.87;;;2.30;;
9370;SDS011;4725;48.384;8.984;2022-07-06T05:27:24;2.60;;;2.40;;
9370;SDS011;4725;48.384;8.984;2022-07-06T05:29:51;3.47;;;2.20;;
9370;SDS011;4725;48.384;8.984;2022-07-06T05:32:18;4.20;;;2.70;;
9370;SDS011;4725;48.384;8.984;2022-07-06T05:34:45;4.47;;;2.37;;
9370;SDS011;4725;48.384;8.984;2022-07-06T05:37:13;3.00;;;2.17;;
9370;SDS011;4725;48.384;8.984;2022-07-06T05:39:40;4.23;;;3.33;;
9370;SDS011;4725;48.384;8.984;2022-07-06T05:42:10;3.57;;;3.03;;
9370;SDS011;4725;48.384;8.984;2022-07-06T05:44:37;6.23;;;3.23;;
9370;SDS011;4725;48.384;8.984;2022-07-06T05:47:04;6.13;;;3.00;;
9370;SDS011;4725;48.384;8.984;2022-07-06T05:49:48;4.20;;;2.72;;
9370;SDS011;4725;48.384;8.984;2022-07-06T05:52:34;3.85;;;2.42;;
9370;SDS011;4725;48.384;8.984;2022-07-06T05:55:01;4.57;;;2.78;;
9370;SDS011;4725;48.384;8.984;2022-07-06T05:57:28;5.28;;;2.60;;
9370;SDS011;4725;48.384;8.984;2022-07-06T05:59:55;3.60;;;2.70;;
9370;SDS011;4725;48.384;8.984;2022-07-06T06:02:21;4.80;;;2.17;;
9370;SDS011;4725;48.384;8.984;2022-07-06T06:04:48;5.13;;;2.85;;
9370;SDS011;4725;48.384;8.984;2022-07-06T06:07:15;4.60;;;2.60;;
9370;SDS011;4725;48.384;8.984;2022-07-06T06:09:43;4.78;;;2.70;;
9370;SDS011;4725;48.384;8.984;2022-07-06T06:12:10;4.03;;;2.60;;
9370;SDS011;4725;48.384;8.984;2022-07-06T06:14:37;3.10;;;2.55;;
9370;SDS011;4725;48.384;8.984;2022-07-06T06:17:04;3.08;;;2.85;;
9370;SDS011;4725;48.384;8.984;2022-07-06T06:19:34;8.10;;;2.53;;
9370;SDS011;4725;48.384;8.984;2022-07-06T06:22:01;4.38;;;2.45;;
9370;SDS011;4725;48.384;8.984;2022-07-06T06:24:29;4.57;;;2.72;;
9370;SDS011;4725;48.384;8.984;2022-07-06T06:26:57;4.43;;;2.40;;
9370;SDS011;4725;48.384;8.984;2022-07-06T06:29:25;6.18;;;2.97;;
9370;SDS011;4725;48.384;8.984;2022-07-06T06:31:52;8.88;;;2.50;;
9370;SDS011;4725;48.384;8.984;2022-07-06T06:34:19;6.78;;;2.90;;
9370;SDS011;4725;48.384;8.984;2022-07-06T06:36:46;11.15;;;2.92;;
9370;SDS011;4725;48.384;8.984;2022-07-06T06:39:12;3.55;;;2.35;;
9370;SDS011;4725;48.384;8.984;2022-07-06T06:41:40;4.97;;;2.85;;
9370;SDS011;4725;48.384;8.984;2022-07-06T06:44:08;7.75;;;3.25;;
9370;SDS011;4725;48.384;8.984;2022-07-06T06:46:35;3.47;;;2.65;;
9370;SDS011;4725;48.384;8.984;2022-07-06T06:49:03;5.28;;;2.30;;
9370;SDS011;4725;48.384;8.984;2022-07-06T06:51:30;4.47;;;2.53;;
9370;SDS011;4725;48.384;8.984;2022-07-06T06:53:57;4.55;;;2.35;;
9370;SDS011;4725;48.384;8.984;2022-07-06T06:56:24;6.60;;;2.90;;
9370;SDS011;4725;48.384;8.984;2022-07-06T06:58:51;4.00;;;2.15;;
9370;SDS011;4725;48.384;8.984;2022-07-06T07:01:19;5.18;;;2.25;;
9370;SDS011;4725;48.384;8.984;2022-07-06T07:03:46;4.10;;;2.65;;
9370;SDS011;4725;48.384;8.984;2022-07-06T07:06:14;6.45;;;2.40;;
9370;SDS011;4725;48.384;8.984;2022-07-06T07:08:40;5.65;;;2.40;;
9370;SDS011;4725;48.384;8.984;2022-07-06T07:11:07;5.32;;;2.25;;
9370;SDS011;4725;48.384;8.984;2022-07-06T07:13:34;3.92;;;3.03;;
9370;SDS011;4725;48.384;8.984;2022-07-06T07:16:01;3.97;;;2.63;;
9370;SDS011;4725;48.384;8.984;2022-07-06T07:18:30;4.75;;;2.83;;
9370;SDS011;4725;48.384;8.984;2022-07-06T07:20:57;13.75;;;2.78;;
9370;SDS011;4725;48.384;8.984;2022-07-06T07:23:23;4.07;;;2.50;;
9370;SDS011;4725;48.384;8.984;2022-07-06T07:25:50;6.55;;;2.58;;
9370;SDS011;4725;48.384;8.984;2022-07-06T07:28:17;7.32;;;2.45;;
9370;SDS011;4725;48.384;8.984;2022-07-06T07:30:44;4.07;;;2.30;;
9370;SDS011;4725;48.384;8.984;2022-07-06T07:33:11;3.65;;;2.33;;
9370;SDS011;4725;48.384;8.984;2022-07-06T07:35:39;5.10;;;2.50;;
9370;SDS011;4725;48.384;8.984;2022-07-06T07:38:06;2.80;;;2.33;;
9370;SDS011;4725;48.384;8.984;2022-07-06T07:40:33;2.45;;;2.13;;
9370;SDS011;4725;48.384;8.984;2022-07-06T07:43:00;3.88;;;2.33;;
9370;SDS011;4725;48.384;8.984;2022-07-06T07:45:27;4.30;;;2.67;;
9370;SDS011;4725;48.384;8.984;2022-07-06T07:47:54;3.03;;;2.10;;
9370;SDS011;4725;48.384;8.984;2022-07-06T07:50:21;4.95;;;2.55;;
9370;SDS011;4725;48.384;8.984;2022-07-06T07:52:50;6.60;;;2.35;;
9370;SDS011;4725;48.384;8.984;2022-07-06T07:55:16;5.07;;;2.38;;
9370;SDS011;4725;48.384;8.984;2022-07-06T07:57:43;3.17;;;2.35;;
9370;SDS011;4725;48.384;8.984;2022-07-06T08:00:11;8.60;;;2.70;;
9370;SDS011;4725;48.384;8.984;2022-07-06T08:02:38;2.33;;;2.10;;
9370;SDS011;4725;48.384;8.984;2022-07-06T08:05:06;2.25;;;1.98;;
9370;SDS011;4725;48.384;8.984;2022-07-06T08:07:33;3.45;;;2.55;;
9370;SDS011;4725;48.384;8.984;2022-07-06T08:10:01;2.25;;;2.05;;
9370;SDS011;4725;48.384;8.984;2022-07-06T08:12:29;3.33;;;2.00;;
9370;SDS011;4725;48.384;8.984;2022-07-06T08:14:57;2.97;;;2.28;;
9370;SDS011;4725;48.384;8.984;2022-07-06T08:17:25;4.10;;;2.30;;
9370;SDS011;4725;48.384;8.984;2022-07-06T08:19:52;3.55;;;2.30;;
9370;SDS011;4725;48.384;8.984;2022-07-06T08:22:18;5.43;;;2.30;;
9370;SDS011;4725;48.384;8.984;2022-07-06T08:24:45;3.33;;;2.60;;
9370;SDS011;4725;48.384;8.984;2022-07-06T08:27:14;6.35;;;2.88;;
9370;SDS011;4725;48.384;8.984;2022-07-06T08:29:41;2.42;;;2.20;;
9370;SDS011;4725;48.384;8.984;2022-07-06T08:32:08;3.63;;;2.35;;
9370;SDS011;4725;48.384;8.984;2022-07-06T08:34:35;5.55;;;2.70;;
9370;SDS011;4725;48.384;8.984;2022-07-06T08:37:02;3.40;;;2.65;;
9370;SDS011;4725;48.384;8.984;2022-07-06T08:39:29;3.20;;;2.15;;
9370;SDS011;4725;48.384;8.984;2022-07-06T08:41:56;2.28;;;2.08;;
9370;SDS011;4725;48.384;8.984;2022-07-06T08:44:26;4.15;;;1.70;;
9370;SDS011;4725;48.384;8.984;2022-07-06T08:46:53;5.85;;;2.13;;
9370;SDS011;4725;48.384;8.984;2022-07-06T08:49:23;4.93;;;2.50;;
9370;SDS011;4725;48.384;8.984;2022-07-06T08:51:51;2.67;;;2.20;;
9370;SDS011;4725;48.384;8.984;2022-07-06T08:54:18;3.00;;;2.20;;
9370;SDS011;4725;48.384;8.984;2022-07-06T08:56:47;4.00;;;2.38;;
9370;SDS011;4725;48.384;8.984;2022-07-06T08:59:15;4.88;;;2.45;;
9370;SDS011;4725;48.384;8.984;2022-07-06T09:01:44;5.00;;;2.30;;
9370;SDS011;4725;48.384;8.984;2022-07-06T09:04:12;4.40;;;2.40;;
9370;SDS011;4725;48.384;8.984;2022-07-06T09:06:41;4.93;;;2.47;;
9370;SDS011;4725;48.384;8.984;2022-07-06T09:09:11;4.00;;;2.88;;
9370;SDS011;4725;48.384;8.984;2022-07-06T09:11:45;3.85;;;2.50;;
9370;SDS011;4725;48.384;8.984;2022-07-06T09:14:11;2.30;;;2.00;;
9370;SDS011;4725;48.384;8.984;2022-07-06T09:16:39;2.70;;;2.20;;
9370;SDS011;4725;48.384;8.984;2022-07-06T09:19:07;2.35;;;2.15;;
9370;SDS011;4725;48.384;8.984;2022-07-06T09:21:37;2.45;;;2.22;;
9370;SDS011;4725;48.384;8.984;2022-07-06T09:24:06;3.45;;;2.30;;
9370;SDS011;4725;48.384;8.984;2022-07-06T09:26:34;4.32;;;2.03;;
9370;SDS011;4725;48.384;8.984;2022-07-06T09:29:02;3.45;;;2.20;;
9370;SDS011;4725;48.384;8.984;2022-07-06T09:31:30;3.90;;;2.40;;
9370;SDS011;4725;48.384;8.984;2022-07-06T09:33:58;2.45;;;2.25;;
9370;SDS011;4725;48.384;8.984;2022-07-06T09:36:38;2.22;;;2.03;;
9370;SDS011;4725;48.384;8.984;2022-07-06T09:39:17;2.97;;;2.22;;
9370;SDS011;4725;48.384;8.984;2022-07-06T09:41:49;3.33;;;2.30;;
9370;SDS011;4725;48.384;8.984;2022-07-06T09:44:18;4.22;;;2.33;;
9370;SDS011;4725;48.384;8.984;2022-07-06T09:46:47;6.43;;;2.65;;
9370;SDS011;4725;48.384;8.984;2022-07-06T09:49:16;4.05;;;2.35;;
9370;SDS011;4725;48.384;8.984;2022-07-06T09:51:45;7.07;;;2.30;;
9370;SDS011;4725;48.384;8.984;2022-07-06T09:54:13;5.40;;;2.10;;
9370;SDS011;4725;48.384;8.984;2022-07-06T09:56:41;2.58;;;2.28;;
9370;SDS011;4725;48.384;8.984;2022-07-06T09:59:13;4.68;;;2.22;;
9370;SDS011;4725;48.384;8.984;2022-07-06T10:01:41;2.58;;;1.65;;
9370;SDS011;4725;48.384;8.984;2022-07-06T10:04:10;3.25;;;3.03;;
9370;SDS011;4725;48.384;8.984;2022-07-06T10:06:39;3.20;;;2.10;;
9370;SDS011;4725;48.384;8.984;2022-07-06T10:09:08;3.40;;;1.90;;
9370;SDS011;4725;48.384;8.984;2022-07-06T10:11:37;2.35;;;2.13;;
9370;SDS011;4725;48.384;8.984;2022-07-06T10:14:06;4.13;;;2.38;;
9370;SDS011;4725;48.384;8.984;2022-07-06T10:16:34;4.18;;;2.15;;
9370;SDS011;4725;48.384;8.984;2022-07-06T10:19:03;2.45;;;2.10;;
9370;SDS011;4725;48.384;8.984;2022-07-06T10:21:32;5.55;;;1.88;;
9370;SDS011;4725;48.384;8.984;2022-07-06T10:24:00;8.02;;;2.17;;
9370;SDS011;4725;48.384;8.984;2022-07-06T10:26:29;2.88;;;2.22;;
9370;SDS011;4725;48.384;8.984;2022-07-06T10:28:56;4.38;;;2.10;;
9370;SDS011;4725;48.384;8.984;2022-07-06T10:31:24;3.63;;;1.92;;
9370;SDS011;4725;48.384;8.984;2022-07-06T10:33:53;2.13;;;1.92;;
9370;SDS011;4725;48.384;8.984;2022-07-06T10:36:21;2.25;;;2.03;;
9370;SDS011;4725;48.384;8.984;2022-07-06T10:38:50;3.95;;;2.00;;
9370;SDS011;4725;48.384;8.984;2022-07-06T10:41:17;3.20;;;1.52;;
9370;SDS011;4725;48.384;8.984;2022-07-06T10:43:56;2.85;;;1.95;;
9370;SDS011;4725;48.384;8.984;2022-07-06T10:46:27;6.05;;;1.95;;
9370;SDS011;4725;48.384;8.984;2022-07-06T10:48:54;2.42;;;2.00;;
9370;SDS011;4725;48.384;8.984;2022-07-06T10:51:24;2.25;;;1.70;;
9370;SDS011;4725;48.384;8.984;2022-07-06T10:53:55;3.05;;;1.40;;
9370;SDS011;4725;48.384;8.984;2022-07-06T10:56:31;2.60;;;1.88;;
9370;SDS011;4725;48.384;8.984;2022-07-06T10:59:03;1.88;;;1.58;;
9370;SDS011;4725;48.384;8.984;2022-07-06T11:01:35;5.28;;;2.17;;
9370;SDS011;4725;48.384;8.984;2022-07-06T11:04:05;2.67;;;1.63;;
9370;SDS011;4725;48.384;8.984;2022-07-06T11:06:34;2.20;;;1.60;;
9370;SDS011;4725;48.384;8.984;2022-07-06T11:09:03;5.05;;;1.80;;
9370;SDS011;4725;48.384;8.984;2022-07-06T11:11:38;2.15;;;1.95;;
9370;SDS011;4725;48.384;8.984;2022-07-06T11:14:09;3.03;;;1.95;;
9370;SDS011;4725;48.384;8.984;2022-07-06T11:16:37;3.47;;;1.80;;
9370;SDS011;4725;48.384;8.984;2022-07-06T11:19:08;5.07;;;2.05;;
9370;SDS011;4725;48.384;8.984;2022-07-06T11:21:37;5.13;;;1.70;;
9370;SDS011;4725;48.384;8.984;2022-07-06T11:24:06;2.50;;;1.70;;
9370;SDS011;4725;48.384;8.984;2022-07-06T11:26:34;4.85;;;2.08;;
9370;SDS011;4725;48.384;8.984;2022-07-06T11:29:02;3.22;;;1.90;;
9370;SDS011;4725;48.384;8.984;2022-07-06T11:31:31;3.33;;;1.83;;
9370;SDS011;4725;48.384;8.984;2022-07-06T11:34:02;1.80;;;1.70;;
9370;SDS011;4725;48.384;8.984;2022-07-06T11:36:30;3.42;;;1.80;;
9370;SDS011;4725;48.384;8.984;2022-07-06T11:38:57;6.60;;;1.88;;
9370;SDS011;4725;48.384;8.984;2022-07-06T11:41:24;8.35;;;2.15;;
9370;SDS011;4725;48.384;8.984;2022-07-06T11:43:51;2.67;;;1.80;;
9370;SDS011;4725;48.384;8.984;2022-07-06T11:46:25;2.70;;;1.73;;
9370;SDS011;4725;48.384;8.984;2022-07-06T11:48:54;3.10;;;1.90;;
9370;SDS011;4725;48.384;8.984;2022-07-06T11:51:23;3.20;;;1.92;;
9370;SDS011;4725;48.384;8.984;2022-07-06T11:53:51;2.83;;;1.60;;
9370;SDS011;4725;48.384;8.984;2022-07-06T11:56:19;3.38;;;1.70;;
9370;SDS011;4725;48.384;8.984;2022-07-06T11:58:51;4.60;;;1.90;;
9370;SDS011;4725;48.384;8.984;2022-07-06T12:01:18;3.40;;;1.95;;
9370;SDS011;4725;48.384;8.984;2022-07-06T12:03:45;5.15;;;1.63;;
9370;SDS011;4725;48.384;8.984;2022-07-06T12:06:14;2.13;;;1.90;;
9370;SDS011;4725;48.384;8.984;2022-07-06T12:08:44;2.53;;;1.80;;
9370;SDS011;4725;48.384;8.984;2022-07-06T12:11:22;6.38;;;1.92;;
9370;SDS011;4725;48.384;8.984;2022-07-06T12:13:52;2.53;;;1.65;;
9370;SDS011;4725;48.384;8.984;2022-07-06T12:16:20;2.70;;;1.65;;
9370;SDS011;4725;48.384;8.984;2022-07-06T12:18:49;2.70;;;1.83;;
9370;SDS011;4725;48.384;8.984;2022-07-06T12:21:18;3.70;;;1.75;;
9370;SDS011;4725;48.384;8.984;2022-07-06T12:23:48;2.83;;;2.00;;
9370;SDS011;4725;48.384;8.984;2022-07-06T12:26:16;4.18;;;2.55;;
9370;SDS011;4725;48.384;8.984;2022-07-06T12:28:44;4.80;;;2.00;;
9370;SDS011;4725;48.384;8.984;2022-07-06T12:33:57;8.75;;;1.85;;
9370;SDS011;4725;48.384;8.984;2022-07-06T12:36:26;4.00;;;2.08;;
9370;SDS011;4725;48.384;8.984;2022-07-06T12:38:53;2.28;;;1.50;;
9370;SDS011;4725;48.384;8.984;2022-07-06T12:41:27;4.30;;;1.77;;
9370;SDS011;4725;48.384;8.984;2022-07-06T12:44:02;3.00;;;2.13;;
9370;SDS011;4725;48.384;8.984;2022-07-06T12:46:31;1.90;;;1.73;;
9370;SDS011;4725;48.384;8.984;2022-07-06T12:49:01;3.28;;;2.28;;
9370;SDS011;4725;48.384;8.984;2022-07-06T12:51:50;3.03;;;1.95;;
9370;SDS011;4725;48.384;8.984;2022-07-06T12:54:18;4.55;;;1.90;;
9370;SDS011;4725;48.384;8.984;2022-07-06T12:56:55;2.55;;;2.00;;
9370;SDS011;4725;48.384;8.984;2022-07-06T12:59:23;3.53;;;1.80;;
9370;SDS011;4725;48.384;8.984;2022-07-06T13:01:50;2.53;;;1.75;;
9370;SDS011;4725;48.384;8.984;2022-07-06T13:04:21;4.30;;;2.20;;
9370;SDS011;4725;48.384;8.984;2022-07-06T13:06:49;5.15;;;2.00;;
9370;SDS011;4725;48.384;8.984;2022-07-06T13:09:16;7.82;;;2.63;;
9370;SDS011;4725;48.384;8.984;2022-07-06T13:11:44;4.05;;;2.30;;
9370;SDS011;4725;48.384;8.984;2022-07-06T13:14:11;4.60;;;2.78;;
9370;SDS011;4725;48.384;8.984;2022-07-06T13:16:38;4.50;;;2.08;;
9370;SDS011;4725;48.384;8.984;2022-07-06T13:19:05;2.92;;;2.45;;
9370;SDS011;4725;48.384;8.984;2022-07-06T13:21:32;3.60;;;2.42;;
9370;SDS011;4725;48.384;8.984;2022-07-06T13:24:00;5.38;;;2.50;;
9370;SDS011;4725;48.384;8.984;2022-07-06T13:26:27;4.82;;;2.85;;
9370;SDS011;4725;48.384;8.984;2022-07-06T13:28:57;5.30;;;2.67;;
9370;SDS011;4725;48.384;8.984;2022-07-06T13:31:24;7.07;;;2.65;;
9370;SDS011;4725;48.384;8.984;2022-07-06T13:33:51;4.20;;;2.53;;
9370;SDS011;4725;48.384;8.984;2022-07-06T13:36:18;5.75;;;2.60;;
9370;SDS011;4725;48.384;8.984;2022-07-06T13:38:45;3.55;;;2.00;;
9370;SDS011;4725;48.384;8.984;2022-07-06T13:41:13;4.35;;;2.88;;
9370;SDS011;4725;48.384;8.984;2022-07-06T13:43:40;4.75;;;2.38;;
9370;SDS011;4725;48.384;8.984;2022-07-06T13:46:07;2.33;;;2.08;;
9370;SDS011;4725;48.384;8.984;2022-07-06T13:48:35;6.85;;;2.47;;
9370;SDS011;4725;48.384;8.984;2022-07-06T13:51:02;3.78;;;2.10;;
9370;SDS011;4725;48.384;8.984;2022-07-06T13:53:29;3.05;;;2.17;;
9370;SDS011;4725;48.384;8.984;2022-07-06T13:55:57;6.82;;;2.60;;
9370;SDS011;4725;48.384;8.984;2022-07-06T13:58:25;3.42;;;2.63;;
9370;SDS011;4725;48.384;8.984;2022-07-06T14:00:52;2.28;;;2.00;;
9370;SDS011;4725;48.384;8.984;2022-07-06T14:03:19;9.57;;;2.53;;
9370;SDS011;4725;48.384;8.984;2022-07-06T14:05:52;8.55;;;2.55;;
9370;SDS011;4725;48.384;8.984;2022-07-06T14:08:19;6.55;;;2.38;;
9370;SDS011;4725;48.384;8.984;2022-07-06T14:10:46;3.35;;;2.28;;
9370;SDS011;4725;48.384;8.984;2022-07-06T14:13:13;4.57;;;2.50;;
9370;SDS011;4725;48.384;8.984;2022-07-06T14:15:42;2.97;;;2.20;;
9370;SDS011;4725;48.384;8.984;2022-07-06T14:18:09;3.08;;;2.35;;
9370;SDS011;4725;48.384;8.984;2022-07-06T14:20:36;3.10;;;2.53;;
9370;SDS011;4725;48.384;8.984;2022-07-06T14:23:03;3.70;;;2.03;;
9370;SDS011;4725;48.384;8.984;2022-07-06T14:25:30;4.65;;;2.70;;
9370;SDS011;4725;48.384;8.984;2022-07-06T14:27:57;3.30;;;2.45;;
9370;SDS011;4725;48.384;8.984;2022-07-06T14:30:24;3.38;;;2.70;;
9370;SDS011;4725;48.384;8.984;2022-07-06T14:32:52;3.97;;;2.38;;
9370;SDS011;4725;48.384;8.984;2022-07-06T14:35:19;3.65;;;2.13;;
9370;SDS011;4725;48.384;8.984;2022-07-06T14:37:46;2.28;;;2.08;;
9370;SDS011;4725;48.384;8.984;2022-07-06T14:40:14;3.50;;;2.90;;
9370;SDS011;4725;48.384;8.984;2022-07-06T14:42:41;6.63;;;2.40;;
9370;SDS011;4725;48.384;8.984;2022-07-06T14:45:08;6.32;;;2.35;;
9370;SDS011;4725;48.384;8.984;2022-07-06T14:47:35;4.57;;;2.08;;
9370;SDS011;4725;48.384;8.984;2022-07-06T14:50:04;4.20;;;2.42;;
9370;SDS011;4725;48.384;8.984;2022-07-06T14:52:31;4.90;;;2.47;;
9370;SDS011;4725;48.384;8.984;2022-07-06T14:54:59;2.40;;;1.90;;
9370;SDS011;4725;48.384;8.984;2022-07-06T14:57:26;5.90;;;2.40;;
9370;SDS011;4725;48.384;8.984;2022-07-06T14:59:53;2.10;;;1.88;;
9370;SDS011;4725;48.384;8.984;2022-07-06T15:02:20;3.20;;;2.33;;
9370;SDS011;4725;48.384;8.984;2022-07-06T15:04:47;3.88;;;2.70;;
9370;SDS011;4725;48.384;8.984;2022-07-06T15:07:15;3.88;;;2.53;;
9370;SDS011;4725;48.384;8.984;2022-07-06T15:09:42;5.57;;;2.15;;
9370;SDS011;4725;48.384;8.984;2022-07-06T15:12:09;2.85;;;2.40;;
9370;SDS011;4725;48.384;8.984;2022-07-06T15:14:36;3.55;;;2.05;;
9370;SDS011;4725;48.384;8.984;2022-07-06T15:17:03;5.47;;;2.25;;
9370;SDS011;4725;48.384;8.984;2022-07-06T15:19:31;8.65;;;2.15;;
9370;SDS011;4725;48.384;8.984;2022-07-06T15:21:58;4.82;;;2.17;;